sensor_id;sensor_type;location;lat;lon;timestamp;P1;durP1;ratioP1;P2;durP2;ratioP2
60999;SDS011;46879;45.658;11.814;2024-01-15T00:03:00;22.05;;;12.40;;
60999;SDS011;46879;45.658;11.814;2024-01-15T00:08:01;15.55;;;11.52;;
60999;SDS011;46879;45.658;11.814;2024-01-15T00:13:02;20.98;;;12.65;;
60999;SDS011;46879;45.658;11.814;2024-01-15T00:18:02;20.13;;;12.30;;
60999;SDS011;46879;45.658;11.814;2024-01-15T00:23:03;16.50;;;11.60;;
60999;SDS011;46879;45.658;11.814;2024-01-15T00:28:04;15.57;;;10.68;;
60999;SDS011;46879;45.658;11.814;2024-01-15T00:33:05;18.27;;;11.73;;
60999;SDS011;46879;45.658;11.814;2024-01-15T00:38:06;14.45;;;11.02;;
60999;SDS011;46879;45.658;11.814;2024-01-15T00:43:07;15.98;;;11.20;;
60999;SDS011;46879;45.658;11.814;2024-01-15T00:48:08;15.50;;;10.88;;
60999;SDS011;46879;45.658;11.814;2024-01-15T00:53:08;15.02;;;10.88;;
60999;SDS011;46879;45.658;11.814;2024-01-15T00:58:09;19.55;;;11.35;;
60999;SDS011;46879;45.658;11.814;2024-01-15T01:03:09;19.10;;;10.82;;
60999;SDS011;46879;45.658;11.814;2024-01-15T01:08:10;15.57;;;10.88;;
60999;SDS011;46879;45.658;11.814;2024-01-15T01:13:11;15.13;;;10.60;;
60999;SDS011;46879;45.658;11.814;2024-01-15T01:18:11;18.13;;;10.63;;
60999;SDS011;46879;45.658;11.814;2024-01-15T01:23:12;15.05;;;10.93;;
60999;SDS011;46879;45.658;11.814;2024-01-15T01:28:12;14.75;;;9.80;;
60999;SDS011;46879;45.658;11.814;2024-01-15T01:33:13;13.90;;;9.75;;
60999;SDS011;46879;45.658;11.814;2024-01-15T01:38:13;15.35;;;10.23;;
60999;SDS011;46879;45.658;11.814;2024-01-15T01:43:14;15.73;;;9.82;;
60999;SDS011;46879;45.658;11.814;2024-01-15T01:48:15;13.70;;;9.77;;
60999;SDS011;46879;45.658;11.814;2024-01-15T01:53:15;18.13;;;9.85;;
60999;SDS011;46879;45.658;11.814;2024-01-15T01:58:16;13.98;;;9.65;;
60999;SDS011;46879;45.658;11.814;2024-01-15T02:03:19;13.38;;;9.52;;
60999;SDS011;46879;45.658;11.814;2024-01-15T02:08:20;11.60;;;8.55;;
60999;SDS011;46879;45.658;11.814;2024-01-15T02:13:20;11.07;;;8.75;;
60999;SDS011;46879;45.658;11.814;2024-01-15T02:18:21;12.80;;;9.43;;
60999;SDS011;46879;45.658;11.814;2024-01-15T02:23:22;14.18;;;8.93;;
60999;SDS011;46879;45.658;11.814;2024-01-15T02:28:22;10.43;;;8.40;;
60999;SDS011;46879;45.658;11.814;2024-01-15T02:33:23;13.52;;;8.45;;
60999;SDS011;46879;45.658;11.814;2024-01-15T02:38:24;15.07;;;8.82;;
60999;SDS011;46879;45.658;11.814;2024-01-15T02:43:24;11.55;;;8.60;;
60999;SDS011;46879;45.658;11.814;2024-01-15T02:48:25;13.25;;;8.52;;
60999;SDS011;46879;45.658;11.814;2024-01-15T02:53:25;14.50;;;8.95;;
60999;SDS011;46879;45.658;11.814;2024-01-15T02:58:26;11.63;;;8.55;;
60999;SDS011;46879;45.658;11.814;2024-01-15T03:03:26;11.43;;;8.60;;
60999;SDS011;46879;45.658;11.814;2024-01-15T03:08:27;11.75;;;8.40;;
60999;SDS011;46879;45.658;11.814;2024-01-15T03:13:29;11.65;;;8.20;;
60999;SDS011;46879;45.658;11.814;2024-01-15T03:18:29;11.35;;;7.32;;
60999;SDS011;46879;45.658;11.814;2024-01-15T03:23:30;12.25;;;8.18;;
60999;SDS011;46879;45.658;11.814;2024-01-15T03:28:30;12.75;;;8.38;;
60999;SDS011;46879;45.658;11.814;2024-01-15T03:33:31;11.57;;;7.88;;
60999;SDS011;46879;45.658;11.814;2024-01-15T03:38:32;11.85;;;8.35;;
60999;SDS011;46879;45.658;11.814;2024-01-15T03:43:32;11.30;;;8.35;;
60999;SDS011;46879;45.658;11.814;2024-01-15T03:48:33;14.13;;;7.75;;
60999;SDS011;46879;45.658;11.814;2024-01-15T03:53:33;10.18;;;7.80;;
60999;SDS011;46879;45.658;11.814;2024-01-15T03:58:34;10.18;;;8.10;;
60999;SDS011;46879;45.658;11.814;2024-01-15T04:03:34;11.13;;;7.63;;
60999;SDS011;46879;45.658;11.814;2024-01-15T04:08:35;10.20;;;7.20;;
60999;SDS011;46879;45.658;11.814;2024-01-15T04:13:36;11.55;;;7.65;;
60999;SDS011;46879;45.658;11.814;2024-01-15T04:18:36;18.40;;;8.18;;
60999;SDS011;46879;45.658;11.814;2024-01-15T04:23:37;9.93;;;6.68;;
60999;SDS011;46879;45.658;11.814;2024-01-15T04:28:39;10.10;;;7.28;;
60999;SDS011;46879;45.658;11.814;2024-01-15T04:33:40;14.05;;;7.80;;
60999;SDS011;46879;45.658;11.814;2024-01-15T04:38:41;9.02;;;7.32;;
60999;SDS011;46879;45.658;11.814;2024-01-15T04:43:41;7.78;;;6.18;;
60999;SDS011;46879;45.658;11.814;2024-01-15T04:48:42;10.73;;;7.55;;
60999;SDS011;46879;45.658;11.814;2024-01-15T04:53:42;11.18;;;7.70;;
60999;SDS011;46879;45.658;11.814;2024-01-15T04:58:44;11.10;;;7.50;;
60999;SDS011;46879;45.658;11.814;2024-01-15T05:03:44;9.63;;;7.10;;
60999;SDS011;46879;45.658;11.814;2024-01-15T05:08:45;8.98;;;7.50;;
60999;SDS011;46879;45.658;11.814;2024-01-15T05:13:45;8.38;;;6.47;;
60999;SDS011;46879;45.658;11.814;2024-01-15T05:18:46;8.75;;;6.70;;
60999;SDS011;46879;45.658;11.814;2024-01-15T05:23:47;10.05;;;6.53;;
60999;SDS011;46879;45.658;11.814;2024-01-15T05:28:47;10.40;;;7.03;;
60999;SDS011;46879;45.658;11.814;2024-01-15T05:33:48;10.73;;;6.75;;
60999;SDS011;46879;45.658;11.814;2024-01-15T05:38:48;8.23;;;6.65;;
60999;SDS011;46879;45.658;11.814;2024-01-15T05:43:49;11.50;;;7.05;;
60999;SDS011;46879;45.658;11.814;2024-01-15T05:48:50;10.23;;;7.15;;
60999;SDS011;46879;45.658;11.814;2024-01-15T05:53:51;12.20;;;7.90;;
60999;SDS011;46879;45.658;11.814;2024-01-15T05:58:51;8.82;;;7.10;;
60999;SDS011;46879;45.658;11.814;2024-01-15T06:03:52;10.98;;;6.93;;
60999;SDS011;46879;45.658;11.814;2024-01-15T06:08:53;8.05;;;6.65;;
60999;SDS011;46879;45.658;11.814;2024-01-15T06:13:53;8.23;;;6.50;;
60999;SDS011;46879;45.658;11.814;2024-01-15T06:18:54;11.10;;;6.90;;
60999;SDS011;46879;45.658;11.814;2024-01-15T06:23:54;10.88;;;7.00;;
60999;SDS011;46879;45.658;11.814;2024-01-15T06:28:56;6.93;;;6.13;;
60999;SDS011;46879;45.658;11.814;2024-01-15T06:33:58;9.50;;;6.80;;
60999;SDS011;46879;45.658;11.814;2024-01-15T06:38:58;8.90;;;6.47;;
60999;SDS011;46879;45.658;11.814;2024-01-15T06:43:59;7.13;;;6.32;;
60999;SDS011;46879;45.658;11.814;2024-01-15T06:48:59;7.60;;;6.38;;
60999;SDS011;46879;45.658;11.814;2024-01-15T06:54:00;10.02;;;6.47;;
60999;SDS011;46879;45.658;11.814;2024-01-15T06:59:00;10.57;;;6.43;;
60999;SDS011;46879;45.658;11.814;2024-01-15T07:04:01;18.42;;;9.02;;
60999;SDS011;46879;45.658;11.814;2024-01-15T07:09:02;16.83;;;8.93;;
60999;SDS011;46879;45.658;11.814;2024-01-15T07:14:02;14.75;;;10.05;;
60999;SDS011;46879;45.658;11.814;2024-01-15T07:19:04;16.67;;;10.40;;
60999;SDS011;46879;45.658;11.814;2024-01-15T07:24:05;18.67;;;9.80;;
60999;SDS011;46879;45.658;11.814;2024-01-15T07:29:05;16.58;;;9.75;;
60999;SDS011;46879;45.658;11.814;2024-01-15T07:34:06;21.27;;;9.63;;
60999;SDS011;46879;45.658;11.814;2024-01-15T07:39:06;15.55;;;9.35;;
60999;SDS011;46879;45.658;11.814;2024-01-15T07:44:07;15.48;;;9.75;;
60999;SDS011;46879;45.658;11.814;2024-01-15T07:49:08;17.23;;;9.85;;
60999;SDS011;46879;45.658;11.814;2024-01-15T07:54:08;12.77;;;9.10;;
60999;SDS011;46879;45.658;11.814;2024-01-15T07:59:10;14.48;;;8.90;;
60999;SDS011;46879;45.658;11.814;2024-01-15T08:04:10;16.05;;;9.60;;
60999;SDS011;46879;45.658;11.814;2024-01-15T08:09:12;11.80;;;8.95;;
60999;SDS011;46879;45.658;11.814;2024-01-15T08:14:13;13.88;;;9.68;;
60999;SDS011;46879;45.658;11.814;2024-01-15T08:19:14;14.63;;;9.65;;
60999;SDS011;46879;45.658;11.814;2024-01-15T08:24:14;17.13;;;10.23;;
60999;SDS011;46879;45.658;11.814;2024-01-15T08:29:15;15.23;;;9.32;;
60999;SDS011;46879;45.658;11.814;2024-01-15T08:34:16;15.35;;;10.52;;
60999;SDS011;46879;45.658;11.814;2024-01-15T08:39:16;14.75;;;10.77;;
60999;SDS011;46879;45.658;11.814;2024-01-15T08:44:19;15.82;;;10.90;;
60999;SDS011;46879;45.658;11.814;2024-01-15T08:49:19;16.98;;;10.25;;
60999;SDS011;46879;45.658;11.814;2024-01-15T08:54:20;16.38;;;9.98;;
60999;SDS011;46879;45.658;11.814;2024-01-15T08:59:21;16.58;;;10.15;;
60999;SDS011;46879;45.658;11.814;2024-01-15T09:04:25;19.77;;;10.50;;
60999;SDS011;46879;45.658;11.814;2024-01-15T09:09:26;16.88;;;10.50;;
60999;SDS011;46879;45.658;11.814;2024-01-15T09:14:27;18.85;;;10.27;;
60999;SDS011;46879;45.658;11.814;2024-01-15T09:19:29;15.90;;;10.45;;
60999;SDS011;46879;45.658;11.814;2024-01-15T09:24:29;14.38;;;10.05;;
60999;SDS011;46879;45.658;11.814;2024-01-15T09:29:30;18.83;;;10.88;;
60999;SDS011;46879;45.658;11.814;2024-01-15T09:34:30;16.25;;;10.63;;
60999;SDS011;46879;45.658;11.814;2024-01-15T09:39:31;14.02;;;10.38;;
60999;SDS011;46879;45.658;11.814;2024-01-15T09:44:32;19.13;;;11.20;;
60999;SDS011;46879;45.658;11.814;2024-01-15T09:49:32;16.92;;;11.10;;
60999;SDS011;46879;45.658;11.814;2024-01-15T09:54:33;17.30;;;11.27;;
60999;SDS011;46879;45.658;11.814;2024-01-15T09:59:34;23.63;;;11.38;;
60999;SDS011;46879;45.658;11.814;2024-01-15T10:04:37;17.45;;;11.15;;
60999;SDS011;46879;45.658;11.814;2024-01-15T10:09:38;17.20;;;11.05;;
60999;SDS011;46879;45.658;11.814;2024-01-15T10:14:38;20.13;;;12.10;;
60999;SDS011;46879;45.658;11.814;2024-01-15T10:19:42;24.23;;;11.20;;
60999;SDS011;46879;45.658;11.814;2024-01-15T10:24:45;18.25;;;11.73;;
60999;SDS011;46879;45.658;11.814;2024-01-15T10:29:46;16.25;;;10.48;;
60999;SDS011;46879;45.658;11.814;2024-01-15T10:34:47;18.25;;;11.75;;
60999;SDS011;46879;45.658;11.814;2024-01-15T10:39:47;16.63;;;10.90;;
60999;SDS011;46879;45.658;11.814;2024-01-15T10:44:48;20.05;;;12.43;;
60999;SDS011;46879;45.658;11.814;2024-01-15T10:49:49;17.88;;;11.75;;
60999;SDS011;46879;45.658;11.814;2024-01-15T10:54:50;19.77;;;12.35;;
60999;SDS011;46879;45.658;11.814;2024-01-15T10:59:51;16.85;;;11.93;;
60999;SDS011;46879;45.658;11.814;2024-01-15T11:04:51;17.42;;;11.48;;
60999;SDS011;46879;45.658;11.814;2024-01-15T11:09:52;17.95;;;11.88;;
60999;SDS011;46879;45.658;11.814;2024-01-15T11:14:58;16.52;;;10.77;;
60999;SDS011;46879;45.658;11.814;2024-01-15T11:20:05;17.75;;;11.48;;
60999;SDS011;46879;45.658;11.814;2024-01-15T11:25:12;18.80;;;11.60;;
60999;SDS011;46879;45.658;11.814;2024-01-15T11:30:14;15.50;;;10.88;;
60999;SDS011;46879;45.658;11.814;2024-01-15T11:35:15;15.32;;;11.13;;
60999;SDS011;46879;45.658;11.814;2024-01-15T11:40:20;17.25;;;11.40;;
60999;SDS011;46879;45.658;11.814;2024-01-15T11:45:43;16.00;;;10.75;;
60999;SDS011;46879;45.658;11.814;2024-01-15T11:50:46;15.77;;;11.32;;
60999;SDS011;46879;45.658;11.814;2024-01-15T11:55:50;17.08;;;11.73;;
60999;SDS011;46879;45.658;11.814;2024-01-15T12:00:53;19.80;;;11.68;;
60999;SDS011;46879;45.658;11.814;2024-01-15T12:05:55;16.10;;;11.23;;
60999;SDS011;46879;45.658;11.814;2024-01-15T12:10:58;15.63;;;10.93;;
60999;SDS011;46879;45.658;11.814;2024-01-15T12:16:01;16.08;;;11.10;;
60999;SDS011;46879;45.658;11.814;2024-01-15T12:21:04;16.77;;;11.13;;
60999;SDS011;46879;45.658;11.814;2024-01-15T12:26:05;18.10;;;11.15;;
60999;SDS011;46879;45.658;11.814;2024-01-15T12:31:07;15.63;;;10.82;;
60999;SDS011;46879;45.658;11.814;2024-01-15T12:36:09;14.85;;;10.20;;
60999;SDS011;46879;45.658;11.814;2024-01-15T12:41:13;15.15;;;10.55;;
60999;SDS011;46879;45.658;11.814;2024-01-15T12:46:16;15.32;;;10.25;;
60999;SDS011;46879;45.658;11.814;2024-01-15T12:51:23;15.80;;;9.90;;
60999;SDS011;46879;45.658;11.814;2024-01-15T12:56:27;13.35;;;9.82;;
60999;SDS011;46879;45.658;11.814;2024-01-15T13:01:29;12.95;;;9.63;;
60999;SDS011;46879;45.658;11.814;2024-01-15T13:06:30;16.75;;;9.82;;
60999;SDS011;46879;45.658;11.814;2024-01-15T13:11:32;13.93;;;9.95;;
60999;SDS011;46879;45.658;11.814;2024-01-15T13:16:33;11.65;;;8.57;;
60999;SDS011;46879;45.658;11.814;2024-01-15T13:21:35;12.43;;;8.52;;
60999;SDS011;46879;45.658;11.814;2024-01-15T13:26:42;14.02;;;9.05;;
60999;SDS011;46879;45.658;11.814;2024-01-15T13:31:45;13.30;;;8.77;;
60999;SDS011;46879;45.658;11.814;2024-01-15T13:36:47;14.43;;;8.93;;
60999;SDS011;46879;45.658;11.814;2024-01-15T13:41:50;16.10;;;8.90;;
60999;SDS011;46879;45.658;11.814;2024-01-15T13:46:52;13.85;;;8.73;;
60999;SDS011;46879;45.658;11.814;2024-01-15T13:51:53;11.13;;;8.30;;
60999;SDS011;46879;45.658;11.814;2024-01-15T13:56:54;11.85;;;8.43;;
60999;SDS011;46879;45.658;11.814;2024-01-15T14:01:56;11.63;;;8.27;;
60999;SDS011;46879;45.658;11.814;2024-01-15T14:06:58;18.40;;;9.00;;
60999;SDS011;46879;45.658;11.814;2024-01-15T14:12:00;12.07;;;8.30;;
60999;SDS011;46879;45.658;11.814;2024-01-15T14:17:02;13.68;;;8.93;;
60999;SDS011;46879;45.658;11.814;2024-01-15T14:22:04;10.82;;;8.30;;
60999;SDS011;46879;45.658;11.814;2024-01-15T14:27:05;15.32;;;8.63;;
60999;SDS011;46879;45.658;11.814;2024-01-15T14:32:07;16.67;;;9.32;;
60999;SDS011;46879;45.658;11.814;2024-01-15T14:37:09;15.05;;;9.80;;
60999;SDS011;46879;45.658;11.814;2024-01-15T14:42:10;13.90;;;9.48;;
60999;SDS011;46879;45.658;11.814;2024-01-15T14:47:12;14.70;;;9.57;;
60999;SDS011;46879;45.658;11.814;2024-01-15T14:52:14;11.43;;;8.07;;
60999;SDS011;46879;45.658;11.814;2024-01-15T14:57:16;12.52;;;9.27;;
60999;SDS011;46879;45.658;11.814;2024-01-15T15:02:18;11.50;;;8.40;;
60999;SDS011;46879;45.658;11.814;2024-01-15T15:07:20;10.18;;;7.80;;
60999;SDS011;46879;45.658;11.814;2024-01-15T15:12:22;12.25;;;8.50;;
60999;SDS011;46879;45.658;11.814;2024-01-15T15:17:23;10.65;;;7.55;;
60999;SDS011;46879;45.658;11.814;2024-01-15T15:22:25;12.25;;;8.10;;
60999;SDS011;46879;45.658;11.814;2024-01-15T15:27:27;11.25;;;8.70;;
60999;SDS011;46879;45.658;11.814;2024-01-15T15:32:29;12.55;;;8.35;;
60999;SDS011;46879;45.658;11.814;2024-01-15T15:37:31;13.55;;;8.73;;
60999;SDS011;46879;45.658;11.814;2024-01-15T15:42:32;10.60;;;7.60;;
60999;SDS011;46879;45.658;11.814;2024-01-15T15:47:34;15.48;;;9.15;;
60999;SDS011;46879;45.658;11.814;2024-01-15T15:52:35;12.63;;;8.15;;
60999;SDS011;46879;45.658;11.814;2024-01-15T15:57:37;20.83;;;7.82;;
60999;SDS011;46879;45.658;11.814;2024-01-15T16:02:39;10.25;;;7.57;;
60999;SDS011;46879;45.658;11.814;2024-01-15T16:07:40;10.52;;;7.30;;
60999;SDS011;46879;45.658;11.814;2024-01-15T16:12:42;13.02;;;7.32;;
60999;SDS011;46879;45.658;11.814;2024-01-15T16:17:45;12.60;;;7.60;;
60999;SDS011;46879;45.658;11.814;2024-01-15T16:22:48;9.95;;;6.70;;
60999;SDS011;46879;45.658;11.814;2024-01-15T16:27:50;7.90;;;6.68;;
60999;SDS011;46879;45.658;11.814;2024-01-15T16:32:52;9.93;;;7.28;;
60999;SDS011;46879;45.658;11.814;2024-01-15T16:37:54;9.73;;;7.30;;
60999;SDS011;46879;45.658;11.814;2024-01-15T16:42:56;9.95;;;7.10;;
60999;SDS011;46879;45.658;11.814;2024-01-15T16:47:58;10.98;;;7.55;;
60999;SDS011;46879;45.658;11.814;2024-01-15T16:52:59;9.02;;;7.05;;
60999;SDS011;46879;45.658;11.814;2024-01-15T16:58:01;9.48;;;7.05;;
60999;SDS011;46879;45.658;11.814;2024-01-15T17:03:03;12.73;;;6.80;;
60999;SDS011;46879;45.658;11.814;2024-01-15T17:08:05;8.60;;;7.10;;
60999;SDS011;46879;45.658;11.814;2024-01-15T17:13:08;12.68;;;6.82;;
60999;SDS011;46879;45.658;11.814;2024-01-15T17:18:10;11.18;;;7.10;;
60999;SDS011;46879;45.658;11.814;2024-01-15T17:23:11;12.00;;;7.82;;
60999;SDS011;46879;45.658;11.814;2024-01-15T17:28:13;10.07;;;6.85;;
60999;SDS011;46879;45.658;11.814;2024-01-15T17:33:15;10.52;;;7.30;;
60999;SDS011;46879;45.658;11.814;2024-01-15T17:38:17;9.43;;;7.00;;
60999;SDS011;46879;45.658;11.814;2024-01-15T17:43:20;9.73;;;6.97;;
60999;SDS011;46879;45.658;11.814;2024-01-15T17:48:23;10.32;;;7.38;;
60999;SDS011;46879;45.658;11.814;2024-01-15T17:53:25;12.50;;;7.72;;
60999;SDS011;46879;45.658;11.814;2024-01-15T17:58:26;10.95;;;6.97;;
60999;SDS011;46879;45.658;11.814;2024-01-15T18:03:28;14.25;;;8.15;;
60999;SDS011;46879;45.658;11.814;2024-01-15T18:08:29;11.93;;;7.75;;
60999;SDS011;46879;45.658;11.814;2024-01-15T18:13:31;11.65;;;8.88;;
60999;SDS011;46879;45.658;11.814;2024-01-15T18:18:33;13.38;;;9.93;;
60999;SDS011;46879;45.658;11.814;2024-01-15T18:23:35;20.17;;;11.38;;
60999;SDS011;46879;45.658;11.814;2024-01-15T18:28:37;14.65;;;10.30;;
60999;SDS011;46879;45.658;11.814;2024-01-15T18:33:39;18.10;;;10.90;;
60999;SDS011;46879;45.658;11.814;2024-01-15T18:38:40;17.30;;;10.70;;
60999;SDS011;46879;45.658;11.814;2024-01-15T18:43:42;14.02;;;10.82;;
60999;SDS011;46879;45.658;11.814;2024-01-15T18:48:44;16.58;;;9.75;;
60999;SDS011;46879;45.658;11.814;2024-01-15T18:53:47;15.93;;;9.73;;
60999;SDS011;46879;45.658;11.814;2024-01-15T18:58:50;11.70;;;8.95;;
60999;SDS011;46879;45.658;11.814;2024-01-15T19:03:51;10.75;;;8.60;;
60999;SDS011;46879;45.658;11.814;2024-01-15T19:08:52;11.25;;;7.82;;
60999;SDS011;46879;45.658;11.814;2024-01-15T19:13:54;14.90;;;9.05;;
60999;SDS011;46879;45.658;11.814;2024-01-15T19:18:56;13.35;;;9.13;;
60999;SDS011;46879;45.658;11.814;2024-01-15T19:23:58;11.30;;;8.85;;
60999;SDS011;46879;45.658;11.814;2024-01-15T19:29:02;11.75;;;8.75;;
60999;SDS011;46879;45.658;11.814;2024-01-15T19:34:07;37.78;;;11.18;;
60999;SDS011;46879;45.658;11.814;2024-01-15T19:39:09;36.63;;;14.82;;
60999;SDS011;46879;45.658;11.814;2024-01-15T19:44:10;26.77;;;14.00;;
60999;SDS011;46879;45.658;11.814;2024-01-15T19:49:12;29.52;;;13.82;;
60999;SDS011;46879;45.658;11.814;2024-01-15T19:54:14;30.55;;;14.82;;
60999;SDS011;46879;45.658;11.814;2024-01-15T19:59:18;27.52;;;15.10;;
60999;SDS011;46879;45.658;11.814;2024-01-15T20:04:20;30.52;;;15.18;;
60999;SDS011;46879;45.658;11.814;2024-01-15T20:09:22;29.75;;;16.15;;
60999;SDS011;46879;45.658;11.814;2024-01-15T20:14:24;27.58;;;15.18;;
60999;SDS011;46879;45.658;11.814;2024-01-15T20:19:27;28.35;;;15.85;;
60999;SDS011;46879;45.658;11.814;2024-01-15T20:24:29;27.58;;;15.07;;
60999;SDS011;46879;45.658;11.814;2024-01-15T20:29:30;26.65;;;15.48;;
60999;SDS011;46879;45.658;11.814;2024-01-15T20:34:31;23.67;;;15.30;;
60999;SDS011;46879;45.658;11.814;2024-01-15T20:39:33;26.30;;;15.60;;
60999;SDS011;46879;45.658;11.814;2024-01-15T20:44:35;25.15;;;15.27;;
60999;SDS011;46879;45.658;11.814;2024-01-15T20:49:36;28.48;;;15.05;;
60999;SDS011;46879;45.658;11.814;2024-01-15T20:54:38;26.92;;;15.82;;
60999;SDS011;46879;45.658;11.814;2024-01-15T20:59:40;25.63;;;14.35;;
60999;SDS011;46879;45.658;11.814;2024-01-15T21:04:43;24.52;;;14.35;;
60999;SDS011;46879;45.658;11.814;2024-01-15T21:09:45;26.77;;;14.13;;
60999;SDS011;46879;45.658;11.814;2024-01-15T21:14:46;20.90;;;12.80;;
60999;SDS011;46879;45.658;11.814;2024-01-15T21:19:48;22.20;;;12.95;;
60999;SDS011;46879;45.658;11.814;2024-01-15T21:24:55;21.45;;;13.23;;
60999;SDS011;46879;45.658;11.814;2024-01-15T21:29:58;26.25;;;13.50;;
60999;SDS011;46879;45.658;11.814;2024-01-15T21:34:59;26.33;;;12.98;;
60999;SDS011;46879;45.658;11.814;2024-01-15T21:40:01;20.17;;;12.65;;
60999;SDS011;46879;45.658;11.814;2024-01-15T21:45:07;21.25;;;13.50;;
60999;SDS011;46879;45.658;11.814;2024-01-15T21:50:10;22.38;;;14.18;;
60999;SDS011;46879;45.658;11.814;2024-01-15T21:55:12;23.23;;;13.30;;
60999;SDS011;46879;45.658;11.814;2024-01-15T22:00:16;21.67;;;14.05;;
60999;SDS011;46879;45.658;11.814;2024-01-15T22:05:18;27.00;;;13.52;;
60999;SDS011;46879;45.658;11.814;2024-01-15T22:10:20;20.25;;;13.70;;
60999;SDS011;46879;45.658;11.814;2024-01-15T22:15:22;26.17;;;13.43;;
60999;SDS011;46879;45.658;11.814;2024-01-15T22:20:25;18.73;;;12.18;;
60999;SDS011;46879;45.658;11.814;2024-01-15T22:25:27;21.73;;;12.82;;
60999;SDS011;46879;45.658;11.814;2024-01-15T22:30:31;22.30;;;12.18;;
60999;SDS011;46879;45.658;11.814;2024-01-15T22:35:33;24.27;;;12.13;;
60999;SDS011;46879;45.658;11.814;2024-01-15T22:40:35;21.15;;;12.57;;
60999;SDS011;46879;45.658;11.814;2024-01-15T22:45:37;22.10;;;13.50;;
60999;SDS011;46879;45.658;11.814;2024-01-15T22:50:38;18.25;;;12.50;;
60999;SDS011;46879;45.658;11.814;2024-01-15T22:55:38;21.67;;;13.13;;
60999;SDS011;46879;45.658;11.814;2024-01-15T23:00:39;25.50;;;13.07;;
60999;SDS011;46879;45.658;11.814;2024-01-15T23:05:43;26.27;;;12.75;;
60999;SDS011;46879;45.658;11.814;2024-01-15T23:10:44;17.38;;;11.52;;
60999;SDS011;46879;45.658;11.814;2024-01-15T23:15:45;18.98;;;12.63;;
60999;SDS011;46879;45.658;11.814;2024-01-15T23:20:45;17.70;;;12.85;;
60999;SDS011;46879;45.658;11.814;2024-01-15T23:25:46;19.77;;;11.77;;
60999;SDS011;46879;45.658;11.814;2024-01-15T23:30:47;20.27;;;11.52;;
60999;SDS011;46879;45.658;11.814;2024-01-15T23:35:47;23.08;;;12.18;;
60999;SDS011;46879;45.658;11.814;2024-01-15T23:40:48;19.67;;;12.10;;
60999;SDS011;46879;45.658;11.814;2024-01-15T23:45:48;18.25;;;12.00;;
60999;SDS011;46879;45.658;11.814;2024-01-15T23:50:50;20.08;;;11.15;;
60999;SDS011;46879;45.658;11.814;2024-01-15T23:55:50;17.33;;;11.00;;
